Time;durP1;ratioP1;P1;durP2;ratioP2;P2;SDS_P1;SDS_P2;PMS_P1;PMS_P2;Temp;Humidity;BMP_temperature;BMP_pressure;BME280_temperature;BME280_humidity;BME280_pressure;Samples;Min_cycle;Max_cycle;Signal;HPM_P1;HPM_P2
2022/04/20 00:02:46;;;;;;;8.02;3.05;;;7.70;99.90;;;;;;5039034;28;20091;-79
2022/04/20 00:05:12;;;;;;;7.18;3.83;;;7.60;99.90;;;;;;5020880;28;20526;-79
2022/04/20 00:07:38;;;;;;;5.47;3.08;;;7.50;99.90;;;;;;5004634;28;20037;-80
2022/04/20 00:10:05;;;;;;;7.20;2.80;;;7.50;99.90;;;;;;5004170;28;20225;-80
2022/04/20 00:12:31;;;;;;;5.55;3.22;;;7.50;99.90;;;;;;5038038;28;20033;-80
2022/04/20 00:14:56;;;;;;;11.48;3.08;;;7.40;99.90;;;;;;5037946;28;20037;-80
2022/04/20 00:17:22;;;;;;;4.45;2.55;;;7.40;99.90;;;;;;5021309;28;20042;-80
2022/04/20 00:19:48;;;;;;;6.30;3.08;;;7.40;99.90;;;;;;5030999;28;20048;-80
2022/04/20 00:22:13;;;;;;;5.20;2.95;;;7.40;99.90;;;;;;5029505;28;20068;-80
2022/04/20 00:24:39;;;;;;;6.57;2.83;;;7.40;99.90;;;;;;5015535;28;20048;-80
2022/04/20 00:27:04;;;;;;;6.80;2.70;;;7.30;99.90;;;;;;5015535;28;20045;-80
2022/04/20 00:29:30;;;;;;;4.85;2.60;;;7.30;99.90;;;;;;4999056;28;20045;-80
2022/04/20 00:31:56;;;;;;;5.88;3.25;;;7.20;99.90;;;;;;4999278;28;20042;-81
2022/04/20 00:34:22;;;;;;;7.40;3.08;;;7.30;99.90;;;;;;4999337;28;20045;-80
2022/04/20 00:36:51;;;;;;;5.28;3.17;;;7.20;99.90;;;;;;5015713;28;20045;-80
2022/04/20 00:39:17;;;;;;;5.53;3.17;;;7.20;99.90;;;;;;5015578;28;20049;-81
2022/04/20 00:41:43;;;;;;;7.65;3.03;;;7.20;99.90;;;;;;5031870;28;20542;-80
2022/04/20 00:44:10;;;;;;;6.15;3.05;;;7.20;99.90;;;;;;5015587;28;20090;-80
2022/04/20 00:46:37;;;;;;;7.78;3.17;;;7.20;99.90;;;;;;5015510;28;20048;-80
2022/04/20 00:49:04;;;;;;;6.85;3.78;;;7.10;99.90;;;;;;5015634;28;20049;-80
2022/04/20 00:51:30;;;;;;;4.85;2.90;;;7.10;99.90;;;;;;4999069;28;20125;-80
2022/04/20 00:54:00;;;;;;;5.35;2.88;;;7.10;99.90;;;;;;4999663;28;20564;-80
2022/04/20 00:56:29;;;;;;;6.25;2.90;;;7.10;99.90;;;;;;5015726;28;20041;-80
2022/04/20 00:58:57;;;;;;;5.78;2.95;;;7.00;99.90;;;;;;5015953;28;20075;-80
2022/04/20 01:01:23;;;;;;;3.05;2.38;;;7.10;99.90;;;;;;5000282;28;20045;-80
2022/04/20 01:03:49;;;;;;;7.28;2.80;;;6.90;99.90;;;;;;5016121;28;20049;-81
2022/04/20 01:06:14;;;;;;;8.75;3.47;;;6.90;99.90;;;;;;5018123;28;20412;-80
2022/04/20 01:08:40;;;;;;;7.45;3.42;;;6.90;99.90;;;;;;5018612;28;20046;-79
2022/04/20 01:11:05;;;;;;;6.15;3.08;;;6.90;99.90;;;;;;5019901;28;20068;-80
2022/04/20 01:13:31;;;;;;;7.53;3.10;;;6.80;99.90;;;;;;5019812;28;20049;-80
2022/04/20 01:15:57;;;;;;;7.05;3.42;;;6.80;99.90;;;;;;5018640;28;20049;-80
2022/04/20 01:18:23;;;;;;;7.72;2.85;;;6.80;99.90;;;;;;5034990;28;20049;-79
2022/04/20 01:20:48;;;;;;;7.80;3.58;;;6.80;99.90;;;;;;5018681;28;20068;-80
2022/04/20 01:23:14;;;;;;;5.68;3.38;;;6.70;99.90;;;;;;5002498;28;20041;-80
2022/04/20 01:25:40;;;;;;;7.18;3.08;;;6.70;99.90;;;;;;5019226;28;20034;-79
2022/04/20 01:28:06;;;;;;;7.22;3.17;;;6.70;99.90;;;;;;5019557;28;20045;-80
2022/04/20 01:30:31;;;;;;;8.23;3.30;;;6.60;99.90;;;;;;5019438;28;20388;-80
2022/04/20 01:32:57;;;;;;;10.15;3.42;;;6.70;99.90;;;;;;5018585;28;20458;-79
2022/04/20 01:35:23;;;;;;;11.93;3.25;;;6.60;99.90;;;;;;5036455;28;20037;-80
2022/04/20 01:37:52;;;;;;;5.28;2.90;;;6.60;99.90;;;;;;5035697;28;20041;-79
2022/04/20 01:40:18;;;;;;;6.03;3.10;;;6.60;99.90;;;;;;5019866;28;20060;-80
2022/04/20 01:42:44;;;;;;;8.57;3.50;;;6.60;99.90;;;;;;5019202;28;20052;-80
2022/04/20 01:45:09;;;;;;;6.68;3.38;;;6.60;99.90;;;;;;5019498;28;20041;-80
2022/04/20 01:47:35;;;;;;;6.72;3.22;;;6.60;99.90;;;;;;5019342;28;20045;-79
2022/04/20 01:50:00;;;;;;;8.45;3.42;;;6.60;99.90;;;;;;5019673;28;20436;-80
2022/04/20 01:52:26;;;;;;;5.32;3.30;;;6.60;99.90;;;;;;5020020;28;20451;-80
2022/04/20 01:54:51;;;;;;;6.28;3.20;;;6.50;99.90;;;;;;5020233;28;20042;-80
2022/04/20 01:57:17;;;;;;;5.72;2.95;;;6.50;99.90;;;;;;5020354;28;20037;-80
2022/04/20 01:59:42;;;;;;;6.60;4.05;;;6.50;99.90;;;;;;5003348;28;20037;-79
2022/04/20 02:04:52;;;;;;;7.13;3.55;;;6.40;99.90;;;;;;5020230;28;20173;-79
2022/04/20 02:07:17;;;;;;;8.57;3.95;;;6.40;99.90;;;;;;5020429;28;20049;-79
2022/04/20 02:09:43;;;;;;;7.60;3.47;;;6.30;99.90;;;;;;5019679;28;20049;-80
2022/04/20 02:12:09;;;;;;;7.18;3.85;;;6.40;99.90;;;;;;5020507;28;20041;-80
2022/04/20 02:14:34;;;;;;;11.00;3.45;;;6.30;99.90;;;;;;5002966;28;20037;-80
2022/04/20 02:17:01;;;;;;;6.07;3.17;;;6.30;99.90;;;;;;5019934;28;20049;-79
2022/04/20 02:19:26;;;;;;;11.18;3.65;;;6.30;99.90;;;;;;5018728;28;20072;-80
2022/04/20 02:21:52;;;;;;;7.45;3.75;;;6.20;99.90;;;;;;5002404;28;20041;-79
2022/04/20 02:24:17;;;;;;;8.50;3.53;;;6.20;99.90;;;;;;5018905;28;20084;-80
2022/04/20 02:26:43;;;;;;;9.15;3.63;;;6.20;99.90;;;;;;5003041;28;20167;-80
2022/04/20 02:29:09;;;;;;;6.78;3.58;;;6.10;99.90;;;;;;5018330;28;20029;-80
2022/04/20 02:31:34;;;;;;;7.07;3.58;;;6.10;99.90;;;;;;5019400;28;20037;-79
2022/04/20 02:34:00;;;;;;;6.95;4.18;;;6.10;99.90;;;;;;5002359;28;20088;-80
2022/04/20 02:36:26;;;;;;;6.35;3.40;;;6.10;99.90;;;;;;5038324;28;20175;-79
2022/04/20 02:38:53;;;;;;;6.25;3.72;;;6.00;99.90;;;;;;5005002;28;20214;-79
2022/04/20 02:41:19;;;;;;;8.32;3.75;;;6.10;99.90;;;;;;5020596;28;20095;-79
2022/04/20 02:43:45;;;;;;;9.05;4.25;;;6.00;99.90;;;;;;5001511;28;20451;-79
2022/04/20 02:46:11;;;;;;;7.65;3.47;;;6.00;99.90;;;;;;5017829;28;20079;-80
2022/04/20 02:48:36;;;;;;;5.85;3.28;;;6.00;99.90;;;;;;5018438;28;20232;-80
2022/04/20 02:51:02;;;;;;;8.70;3.72;;;6.00;99.90;;;;;;5019907;28;20083;-80
2022/04/20 02:53:28;;;;;;;9.27;4.03;;;6.00;99.90;;;;;;5021279;28;20067;-80
2022/04/20 02:55:53;;;;;;;7.90;4.45;;;5.90;99.90;;;;;;5002132;28;20135;-80
2022/04/20 02:58:19;;;;;;;8.48;4.00;;;6.00;99.90;;;;;;5016724;28;20493;-80
2022/04/20 03:00:45;;;;;;;12.25;3.60;;;5.90;99.90;;;;;;5017155;28;20042;-80
2022/04/20 03:03:12;;;;;;;6.53;3.22;;;5.90;99.90;;;;;;5018005;28;20310;-80
2022/04/20 03:05:38;;;;;;;9.50;3.70;;;5.80;99.90;;;;;;5020538;28;20045;-79
2022/04/20 03:08:04;;;;;;;8.98;3.33;;;5.90;99.90;;;;;;5033869;28;20038;-80
2022/04/20 03:10:29;;;;;;;6.85;3.67;;;5.80;99.90;;;;;;5028234;28;20041;-79
2022/04/20 03:12:55;;;;;;;7.57;3.72;;;5.90;99.90;;;;;;5013160;28;20512;-80
2022/04/20 03:15:20;;;;;;;9.00;4.20;;;5.80;99.90;;;;;;5012793;28;20488;-80
2022/04/20 03:17:46;;;;;;;6.05;3.47;;;5.80;99.90;;;;;;5012732;28;20052;-80
2022/04/20 03:20:11;;;;;;;6.78;3.88;;;5.70;99.90;;;;;;5012606;28;20268;-79
2022/04/20 03:22:37;;;;;;;7.10;3.88;;;5.80;99.90;;;;;;4996471;28;20134;-80
2022/04/20 03:25:03;;;;;;;8.18;4.05;;;5.70;99.90;;;;;;5013322;28;20037;-80
2022/04/20 03:27:29;;;;;;;7.82;4.07;;;5.70;99.90;;;;;;5015806;28;20509;-80
2022/04/20 03:29:55;;;;;;;5.50;3.47;;;5.70;99.90;;;;;;5016823;28;20133;-80
2022/04/20 03:32:21;;;;;;;9.02;4.43;;;5.70;99.90;;;;;;5000189;28;20057;-80
2022/04/20 03:34:46;;;;;;;9.23;4.80;;;5.70;99.90;;;;;;5016691;28;20080;-80
2022/04/20 03:37:12;;;;;;;8.23;4.00;;;5.60;99.90;;;;;;5000410;28;20049;-79
2022/04/20 03:39:38;;;;;;;6.38;3.85;;;5.60;99.90;;;;;;5016798;28;20499;-80
2022/04/20 03:42:05;;;;;;;7.93;3.58;;;5.60;99.90;;;;;;5033295;28;20124;-80
2022/04/20 03:44:31;;;;;;;8.07;4.55;;;5.50;99.90;;;;;;5000169;28;20046;-79
2022/04/20 03:46:57;;;;;;;7.38;3.78;;;5.50;99.90;;;;;;5016941;28;20103;-80
2022/04/20 03:49:22;;;;;;;13.57;3.53;;;5.40;99.90;;;;;;5017064;28;20041;-79
2022/04/20 03:51:48;;;;;;;8.50;4.13;;;5.40;99.90;;;;;;5000752;28;20033;-80
2022/04/20 03:54:14;;;;;;;10.40;4.38;;;5.40;99.90;;;;;;5016834;28;20478;-80
2022/04/20 03:59:24;;;;;;;7.78;4.30;;;5.40;99.90;;;;;;5033510;28;20527;-80
2022/04/20 04:01:51;;;;;;;6.72;4.07;;;5.30;99.90;;;;;;5016984;28;20072;-80
2022/04/20 04:04:20;;;;;;;10.68;4.35;;;5.30;99.90;;;;;;5016887;28;20440;-79
2022/04/20 04:06:46;;;;;;;9.93;5.25;;;5.30;99.90;;;;;;5000853;28;20037;-80
2022/04/20 04:09:12;;;;;;;9.90;5.10;;;5.20;99.90;;;;;;5017037;28;20544;-80
2022/04/20 04:11:38;;;;;;;8.07;4.22;;;5.30;99.90;;;;;;5017160;28;20132;-80
2022/04/20 04:14:03;;;;;;;9.93;4.10;;;5.20;99.90;;;;;;5016792;28;20113;-80
2022/04/20 04:16:29;;;;;;;11.18;4.63;;;5.20;99.90;;;;;;5033998;28;20182;-79
2022/04/20 04:18:55;;;;;;;7.07;4.22;;;5.20;99.90;;;;;;5000650;28;20046;-80
2022/04/20 04:21:21;;;;;;;10.35;4.35;;;5.10;99.90;;;;;;5017310;28;20067;-79
2022/04/20 04:23:47;;;;;;;10.80;5.70;;;5.20;99.90;;;;;;5000409;28;20412;-78
2022/04/20 04:26:13;;;;;;;8.73;4.63;;;5.20;99.90;;;;;;5016531;28;20045;-79
2022/04/20 04:28:42;;;;;;;11.70;4.65;;;5.30;99.90;;;;;;5015587;28;20603;-79
2022/04/20 04:31:07;;;;;;;11.88;4.88;;;5.20;99.90;;;;;;5015805;28;20037;-78
2022/04/20 04:33:34;;;;;;;7.45;5.45;;;5.20;99.90;;;;;;5017582;28;20041;-78
2022/04/20 04:36:00;;;;;;;12.13;6.50;;;5.20;99.90;;;;;;5017066;28;20116;-79
2022/04/20 04:38:26;;;;;;;10.90;4.88;;;5.30;99.90;;;;;;5016100;28;20034;-78
2022/04/20 04:40:53;;;;;;;11.05;4.82;;;5.30;99.90;;;;;;5033321;28;20530;-78
2022/04/20 04:43:18;;;;;;;8.23;5.00;;;5.30;99.90;;;;;;5033275;28;20566;-79
2022/04/20 04:48:38;;;;;;;10.63;4.97;;;5.40;99.90;;;;;;5033429;28;20052;-78
2022/04/20 04:51:05;;;;;;;9.80;5.32;;;5.40;99.90;;;;;;5015750;28;20096;-79
2022/04/20 04:53:30;;;;;;;7.75;5.80;;;5.40;99.90;;;;;;5017791;28;20073;-77
2022/04/20 04:55:56;;;;;;;11.57;7.43;;;5.40;99.90;;;;;;5016891;28;20535;-78
2022/04/20 04:58:21;;;;;;;12.90;5.22;;;5.40;99.90;;;;;;5018822;28;20053;-78
2022/04/20 05:00:47;;;;;;;37.75;17.92;;;5.60;99.90;;;;;;5017933;28;20435;-77
2022/04/20 05:03:14;;;;;;;64.53;30.25;;;5.70;99.90;;;;;;5001966;28;20056;-78
2022/04/20 05:05:41;;;;;;;16.83;8.43;;;6.00;99.90;;;;;;5017937;28;20523;-79
2022/04/20 05:08:07;;;;;;;9.30;4.25;;;6.30;99.90;;;;;;5017756;28;20212;-78
2022/04/20 05:10:33;;;;;;;18.63;5.60;;;6.50;99.90;;;;;;5018880;28;20091;-77
2022/04/20 05:13:00;;;;;;;10.18;4.10;;;6.50;99.90;;;;;;5017568;28;20037;-78
2022/04/20 05:15:26;;;;;;;8.35;4.18;;;6.50;99.90;;;;;;5017060;28;20451;-77
2022/04/20 05:17:52;;;;;;;8.50;4.78;;;6.40;99.90;;;;;;5017841;28;20041;-78
2022/04/20 05:20:21;;;;;;;45.38;22.13;;;6.50;99.90;;;;;;5000685;28;20045;-78
2022/04/20 05:22:47;;;;;;;12.45;5.80;;;6.50;99.90;;;;;;5016104;28;20049;-78
2022/04/20 05:25:12;;;;;;;10.95;5.57;;;6.40;99.90;;;;;;5016387;28;20052;-77
2022/04/20 05:27:38;;;;;;;8.48;5.13;;;6.40;99.90;;;;;;5032758;28;20046;-78
2022/04/20 05:30:05;;;;;;;14.23;7.22;;;6.40;99.90;;;;;;5015755;28;20069;-77
2022/04/20 05:32:31;;;;;;;7.40;4.32;;;6.30;99.90;;;;;;5017473;28;20037;-80
2022/04/20 05:34:56;;;;;;;10.57;5.03;;;6.40;99.90;;;;;;5018953;28;20096;-78
2022/04/20 05:42:51;;;;;;;7.80;4.72;;;6.30;99.90;;;;;;5018358;28;20054;-79
2022/04/20 05:45:16;;;;;;;12.90;5.63;;;6.30;99.90;;;;;;5018342;28;20045;-79
2022/04/20 05:47:42;;;;;;;7.53;4.50;;;6.30;99.90;;;;;;5017881;28;20104;-78
2022/04/20 05:50:08;;;;;;;7.68;4.45;;;6.50;99.90;;;;;;5018987;28;20432;-78
2022/04/20 05:52:33;;;;;;;10.55;4.55;;;6.60;99.90;;;;;;5031187;28;20468;-78
2022/04/20 05:54:59;;;;;;;7.68;3.70;;;6.60;99.90;;;;;;5026004;28;20045;-79
2022/04/20 05:57:25;;;;;;;8.10;4.13;;;6.70;99.90;;;;;;4998574;28;20041;-79
2022/04/20 05:59:50;;;;;;;6.32;3.78;;;6.80;99.90;;;;;;5013919;28;20037;-79
2022/04/20 06:02:16;;;;;;;8.40;4.40;;;6.90;99.90;;;;;;5014258;28;20041;-79
2022/04/20 06:04:42;;;;;;;9.45;4.55;;;6.90;99.90;;;;;;5014546;28;20041;-79
2022/04/20 06:07:07;;;;;;;6.75;4.22;;;6.90;99.90;;;;;;5014452;28;20046;-79
2022/04/20 06:09:33;;;;;;;7.80;4.15;;;7.00;99.90;;;;;;5013637;28;20484;-79
2022/04/20 06:11:59;;;;;;;8.45;4.22;;;7.00;99.90;;;;;;5014129;28;20037;-79
2022/04/20 06:14:25;;;;;;;8.20;4.18;;;7.00;99.90;;;;;;5014114;28;20048;-79
2022/04/20 06:16:50;;;;;;;10.20;3.95;;;7.20;99.90;;;;;;5015070;28;20107;-79
2022/04/20 06:19:17;;;;;;;9.40;5.07;;;7.20;99.90;;;;;;5014197;28;20049;-79
2022/04/20 06:21:43;;;;;;;7.45;3.88;;;7.30;99.90;;;;;;5013583;28;20053;-79
2022/04/20 06:24:08;;;;;;;7.15;3.88;;;7.50;99.90;;;;;;5013701;28;20044;-79
2022/04/20 06:26:34;;;;;;;6.13;3.75;;;7.50;99.90;;;;;;5013956;28;20056;-79
2022/04/20 06:28:59;;;;;;;6.32;3.92;;;7.60;99.90;;;;;;5013775;28;20124;-79
2022/04/20 06:31:25;;;;;;;7.18;4.32;;;7.70;99.90;;;;;;5014190;28;20128;-78
2022/04/20 06:33:52;;;;;;;7.57;3.90;;;7.70;99.90;;;;;;5014295;28;20118;-79
2022/04/20 06:36:17;;;;;;;6.85;3.72;;;7.70;99.90;;;;;;5014586;28;20049;-78
2022/04/20 06:38:43;;;;;;;6.75;3.90;;;7.90;99.90;;;;;;5014611;28;20100;-79
2022/04/20 06:41:08;;;;;;;5.07;3.70;;;8.00;99.90;;;;;;5014021;28;20367;-80
2022/04/20 06:43:35;;;;;;;8.07;3.85;;;8.10;99.90;;;;;;5014381;28;20076;-79
2022/04/20 06:46:01;;;;;;;6.18;3.75;;;8.50;99.90;;;;;;5016428;28;20073;-80
2022/04/20 06:48:27;;;;;;;7.57;3.85;;;8.80;99.90;;;;;;5018337;28;20033;-78
2022/04/20 06:50:53;;;;;;;6.43;3.90;;;9.00;99.90;;;;;;5019116;28;20045;-79
2022/04/20 06:58:48;;;;;;;4.85;3.30;;;10.20;99.90;;;;;;5017484;28;20045;-78
2022/04/20 07:01:15;;;;;;;5.35;3.30;;;10.20;99.90;;;;;;5019984;28;20049;-79
2022/04/20 07:03:40;;;;;;;7.68;3.80;;;10.10;99.90;;;;;;5022709;28;20041;-78
2022/04/20 07:06:06;;;;;;;6.75;3.80;;;10.00;99.90;;;;;;5022227;28;20068;-78
2022/04/20 07:08:33;;;;;;;6.45;3.60;;;9.90;99.90;;;;;;5022381;28;20452;-79
2022/04/20 07:10:59;;;;;;;6.20;3.42;;;10.10;99.90;;;;;;5039669;28;20029;-79
2022/04/20 07:13:25;;;;;;;5.95;3.45;;;10.40;99.90;;;;;;5005640;28;20618;-80
2022/04/20 07:15:51;;;;;;;5.80;3.15;;;10.90;99.90;;;;;;5004655;28;20053;-79
2022/04/20 07:18:17;;;;;;;6.93;3.20;;;11.40;99.90;;;;;;5039300;28;20120;-78
2022/04/20 07:20:43;;;;;;;6.38;3.15;;;11.80;99.90;;;;;;5020524;28;20057;-79
2022/04/20 07:23:09;;;;;;;7.95;3.80;;;12.40;99.90;;;;;;5021274;28;20041;-80
2022/04/20 07:25:36;;;;;;;5.15;2.22;;;12.90;99.90;;;;;;5021199;28;20512;-79
2022/04/20 07:28:06;;;;;;;3.25;1.90;;;13.30;99.90;;;;;;5019916;28;20037;-80
2022/04/20 07:30:32;;;;;;;4.32;2.17;;;13.60;99.90;;;;;;5020331;28;20030;-79
2022/04/20 07:32:57;;;;;;;4.20;2.28;;;13.70;99.90;;;;;;5018998;28;20112;-80
2022/04/20 07:35:23;;;;;;;4.28;1.90;;;13.90;99.90;;;;;;5019830;28;20073;-80
2022/04/20 07:37:48;;;;;;;3.17;2.33;;;14.10;98.80;;;;;;5036941;28;20087;-79
2022/04/20 07:40:14;;;;;;;3.22;1.90;;;14.30;95.60;;;;;;5020877;28;20045;-79
2022/04/20 07:42:40;;;;;;;4.80;2.22;;;14.40;92.50;;;;;;5021545;28;20048;-79
2022/04/20 07:45:06;;;;;;;4.97;2.45;;;14.60;89.90;;;;;;5003923;28;20040;-80
2022/04/20 07:47:32;;;;;;;8.27;2.58;;;14.80;91.70;;;;;;5003616;28;20045;-80
2022/04/20 07:52:43;;;;;;;3.55;2.83;;;15.20;88.10;;;;;;5021318;28;20504;-79
2022/04/20 07:55:10;;;;;;;3.58;2.47;;;15.30;84.80;;;;;;5019795;28;20403;-80
2022/04/20 07:57:36;;;;;;;6.35;3.25;;;15.40;81.50;;;;;;5019271;28;20477;-80
2022/04/20 08:00:07;;;;;;;5.80;2.70;;;15.60;79.80;;;;;;5036061;28;20459;-79
2022/04/20 08:02:33;;;;;;;3.00;2.10;;;16.00;73.40;;;;;;5002685;28;20558;-79
2022/04/20 08:04:58;;;;;;;3.33;2.45;;;16.20;74.50;;;;;;5019857;28;20052;-80
2022/04/20 08:07:24;;;;;;;3.35;2.25;;;16.30;71.80;;;;;;5036999;28;20084;-80
2022/04/20 08:09:50;;;;;;;3.28;2.17;;;16.30;68.50;;;;;;5021290;28;20481;-79
2022/04/20 08:12:15;;;;;;;2.92;2.15;;;16.40;66.30;;;;;;5022032;28;20077;-79
2022/04/20 08:14:41;;;;;;;2.75;2.05;;;16.50;62.50;;;;;;5020108;28;20099;-80
2022/04/20 08:17:06;;;;;;;4.72;2.33;;;16.60;63.50;;;;;;5019358;28;20045;-80
2022/04/20 08:19:32;;;;;;;2.75;2.10;;;16.60;62.10;;;;;;5017749;28;20060;-79
2022/04/20 08:21:58;;;;;;;3.58;2.55;;;16.70;60.80;;;;;;5018969;28;20033;-80
2022/04/20 08:24:24;;;;;;;3.63;2.20;;;16.70;60.00;;;;;;5019776;28;20038;-80
2022/04/20 08:26:50;;;;;;;4.13;2.20;;;16.80;60.00;;;;;;5020346;28;20515;-80
2022/04/20 08:29:16;;;;;;;2.92;1.85;;;16.90;59.50;;;;;;5019655;28;20029;-79
2022/04/20 08:31:41;;;;;;;3.05;2.22;;;16.80;58.90;;;;;;5017819;28;20045;-80
2022/04/20 08:34:07;;;;;;;5.40;2.15;;;16.90;58.50;;;;;;5033674;28;20041;-79
2022/04/20 08:36:33;;;;;;;3.17;1.98;;;17.00;57.20;;;;;;5001109;28;20129;-80
2022/04/20 08:38:59;;;;;;;5.45;2.55;;;17.10;57.10;;;;;;5017309;28;20056;-80
2022/04/20 08:41:25;;;;;;;2.20;1.85;;;17.10;56.60;;;;;;5017756;28;20041;-80
2022/04/20 08:43:52;;;;;;;2.50;1.90;;;17.10;56.20;;;;;;5019444;28;20049;-79
2022/04/20 08:46:18;;;;;;;2.88;1.98;;;17.00;55.40;;;;;;5023531;28;20056;-79
2022/04/20 08:48:43;;;;;;;4.80;2.17;;;16.80;56.50;;;;;;5006472;28;20362;-80
2022/04/20 08:51:09;;;;;;;5.20;2.40;;;16.70;56.80;;;;;;5024211;28;20040;-79
2022/04/20 08:53:36;;;;;;;3.85;2.38;;;16.40;56.30;;;;;;5023651;28;20053;-80
2022/04/20 08:58:48;;;;;;;5.00;2.58;;;16.30;56.30;;;;;;5019896;28;20132;-79
2022/04/20 09:01:14;;;;;;;7.25;2.30;;;16.30;57.10;;;;;;5019325;28;20100;-80
2022/04/20 09:03:42;;;;;;;5.32;2.60;;;16.50;56.70;;;;;;5021013;28;20449;-79
2022/04/20 09:06:09;;;;;;;2.85;1.92;;;16.70;55.80;;;;;;5016846;28;20041;-80
2022/04/20 09:08:35;;;;;;;4.03;1.83;;;16.80;55.80;;;;;;4999983;28;20038;-79
2022/04/20 09:11:01;;;;;;;4.60;1.95;;;17.10;55.80;;;;;;4999846;28;20425;-80
2022/04/20 09:13:32;;;;;;;4.32;2.45;;;17.50;55.30;;;;;;5016148;28;20045;-80
2022/04/20 09:16:11;;;;;;;3.25;2.05;;;17.90;54.40;;;;;;5016462;28;20046;-79
2022/04/20 09:18:39;;;;;;;3.25;1.90;;;17.80;52.90;;;;;;5015675;28;20045;-79
2022/04/20 09:21:15;;;;;;;5.03;1.90;;;17.70;53.50;;;;;;4998868;28;20053;-79
2022/04/20 09:23:41;;;;;;;7.32;1.95;;;17.50;51.30;;;;;;5014390;28;20120;-80
2022/04/20 09:26:10;;;;;;;2.28;2.05;;;17.30;52.70;;;;;;4999468;28;20113;-80
2022/04/20 09:28:39;;;;;;;1.75;1.60;;;17.10;52.20;;;;;;4998573;28;20179;-80
2022/04/20 09:31:05;;;;;;;2.28;1.70;;;17.20;51.00;;;;;;5000045;28;20060;-80
2022/04/20 09:33:50;;;;;;;7.82;1.42;;;17.20;51.80;;;;;;5015214;28;20489;-80
2022/04/20 09:36:43;;;;;;;4.20;1.80;;;17.30;50.20;;;;;;5015469;28;20076;-79
2022/04/20 09:39:09;;;;;;;3.15;1.80;;;17.50;48.00;;;;;;4998773;28;20033;-79
2022/04/20 09:41:55;;;;;;;3.25;1.85;;;17.70;50.30;;;;;;5014567;28;20128;-79
2022/04/20 09:44:22;;;;;;;2.63;1.83;;;17.50;46.70;;;;;;4998673;28;20052;-80
2022/04/20 09:49:57;;;;;;;3.75;1.80;;;17.60;49.40;;;;;;5031425;28;20588;-79
2022/04/20 09:52:25;;;;;;;3.03;1.88;;;17.70;49.60;;;;;;4998612;28;20041;-80
2022/04/20 09:54:56;;;;;;;3.65;1.60;;;17.70;48.90;;;;;;5015364;28;20123;-80
2022/04/20 09:57:22;;;;;;;2.97;1.88;;;17.60;48.80;;;;;;4998848;28;20033;-80
2022/04/20 10:00:04;;;;;;;2.85;1.67;;;17.60;48.80;;;;;;4998108;28;20121;-80
2022/04/20 10:02:30;;;;;;;2.53;1.67;;;17.60;46.00;;;;;;5033039;28;20056;-80
2022/04/20 10:04:57;;;;;;;1.95;1.50;;;17.80;48.80;;;;;;5015300;28;20045;-80
2022/04/20 10:07:23;;;;;;;3.88;1.50;;;18.10;47.90;;;;;;5015088;28;20056;-80
2022/04/20 10:09:49;;;;;;;4.63;2.00;;;18.40;47.40;;;;;;5014260;28;20045;-80
2022/04/20 10:12:17;;;;;;;3.45;2.08;;;18.30;47.10;;;;;;4998613;28;20029;-80
2022/04/20 10:17:34;;;;;;;3.08;1.88;;;17.80;46.80;;;;;;5014493;28;20052;-81
2022/04/20 10:20:02;;;;;;;7.13;1.95;;;17.70;47.70;;;;;;4997898;28;20497;-79
2022/04/20 10:22:30;;;;;;;2.15;1.90;;;17.60;46.70;;;;;;4997828;28;20041;-80
2022/04/20 10:24:58;;;;;;;2.75;1.83;;;17.60;47.10;;;;;;4998036;28;20049;-80
2022/04/20 10:27:43;;;;;;;2.88;1.67;;;17.60;47.70;;;;;;4997821;28;20083;-80
2022/04/20 10:30:19;;;;;;;2.13;1.50;;;17.50;47.00;;;;;;5014030;28;20091;-80
2022/04/20 10:32:55;;;;;;;2.42;1.70;;;17.20;46.40;;;;;;4998418;28;20037;-81
2022/04/20 10:35:21;;;;;;;4.13;1.45;;;17.00;47.10;;;;;;5015561;28;20047;-80
2022/04/20 10:38:06;;;;;;;2.85;1.83;;;16.80;47.00;;;;;;4998096;28;20471;-80
2022/04/20 10:40:33;;;;;;;2.45;1.27;;;17.00;47.00;;;;;;5014128;28;20051;-80
2022/04/20 10:43:23;;;;;;;4.35;1.70;;;17.10;47.20;;;;;;4998490;28;20037;-80
2022/04/20 10:46:12;;;;;;;3.13;1.52;;;17.20;46.20;;;;;;5014858;28;20041;-80
2022/04/20 10:48:44;;;;;;;4.45;1.98;;;17.20;48.40;;;;;;4999386;28;20156;-80
2022/04/20 10:51:16;;;;;;;2.95;1.65;;;17.40;48.00;;;;;;5013934;28;20041;-81
2022/04/20 10:53:43;;;;;;;6.05;2.15;;;17.50;47.40;;;;;;4997715;28;20077;-81
2022/04/20 10:56:09;;;;;;;3.70;1.67;;;17.20;47.10;;;;;;4997320;28;20048;-80
2022/04/20 10:58:35;;;;;;;2.67;1.88;;;17.10;47.40;;;;;;5014230;28;20049;-81
2022/04/20 11:01:11;;;;;;;2.88;1.70;;;17.00;47.30;;;;;;4997564;28;20503;-80
2022/04/20 11:04:06;;;;;;;9.52;2.00;;;17.10;49.60;;;;;;5015173;28;20112;-81
2022/04/20 11:07:01;;;;;;;2.70;1.80;;;17.20;47.60;;;;;;4999746;28;20439;-81
2022/04/20 11:09:45;;;;;;;2.60;1.67;;;17.10;46.90;;;;;;5017612;28;20077;-79
2022/04/20 11:21:23;;;;;;;6.50;1.55;;;17.50;47.90;;;;;;4996421;28;20053;-80
2022/04/20 11:24:06;;;;;;;1.75;1.45;;;17.40;47.70;;;;;;4994801;28;20046;-80
2022/04/20 11:26:39;;;;;;;2.55;1.52;;;17.30;47.40;;;;;;5006149;28;20059;-80
2022/04/20 11:29:11;;;;;;;4.57;2.58;;;17.40;47.70;;;;;;5016702;28;20132;-80
2022/04/20 11:31:42;;;;;;;5.45;1.90;;;17.30;47.40;;;;;;5017114;28;20046;-80
2022/04/20 11:34:08;;;;;;;2.83;1.80;;;17.30;47.90;;;;;;5034815;28;20052;-80
2022/04/20 11:36:37;;;;;;;3.10;2.30;;;17.20;48.20;;;;;;4999740;28;20045;-80
2022/04/20 11:39:02;;;;;;;3.90;2.13;;;17.40;48.30;;;;;;5034056;28;20052;-81
2022/04/20 11:41:28;;;;;;;5.35;2.30;;;17.60;48.10;;;;;;5015139;28;20041;-80
2022/04/20 11:43:54;;;;;;;3.35;1.98;;;17.60;48.10;;;;;;5016546;28;20408;-80
2022/04/20 11:46:20;;;;;;;3.22;1.65;;;17.80;47.90;;;;;;5017165;28;20484;-80
2022/04/20 11:48:54;;;;;;;4.45;2.08;;;17.80;47.50;;;;;;5020230;28;20408;-80
2022/04/20 11:51:21;;;;;;;2.72;1.75;;;17.80;47.70;;;;;;5022157;28;20472;-80
2022/04/20 11:53:48;;;;;;;2.65;1.88;;;17.80;47.70;;;;;;5002370;28;20045;-80
2022/04/20 11:56:15;;;;;;;6.22;2.20;;;17.70;48.10;;;;;;5019470;28;20061;-79
2022/04/20 11:58:46;;;;;;;2.85;1.80;;;17.80;47.60;;;;;;5018165;28;20045;-81
2022/04/20 12:01:12;;;;;;;2.30;1.70;;;17.70;47.50;;;;;;5002690;28;20045;-81
2022/04/20 12:03:41;;;;;;;5.95;1.98;;;17.70;47.10;;;;;;5002866;28;20311;-79
2022/04/20 12:06:12;;;;;;;2.53;2.05;;;17.70;47.40;;;;;;5019850;28;20093;-80
2022/04/20 12:08:42;;;;;;;2.75;1.60;;;17.60;47.40;;;;;;5019337;28;20370;-80
2022/04/20 12:11:10;;;;;;;2.13;1.30;;;17.50;47.10;;;;;;5018438;28;20045;-80
2022/04/20 12:13:42;;;;;;;2.53;1.63;;;17.60;47.20;;;;;;5018440;28;20049;-79
2022/04/20 12:16:10;;;;;;;3.15;1.67;;;17.70;46.90;;;;;;5019237;28;20497;-80
2022/04/20 12:18:40;;;;;;;3.22;1.33;;;17.70;46.30;;;;;;5025252;28;20048;-80
2022/04/20 12:21:27;;;;;;;2.35;1.50;;;17.70;46.30;;;;;;5027520;28;20040;-80
2022/04/20 12:23:53;;;;;;;2.15;1.15;;;17.80;46.60;;;;;;5025107;28;20634;-80
2022/04/20 12:26:27;;;;;;;2.92;1.52;;;17.90;46.50;;;;;;5000288;28;20038;-80
2022/04/20 12:29:02;;;;;;;3.08;1.73;;;18.00;44.90;;;;;;5016497;28;20448;-80
2022/04/20 12:31:28;;;;;;;2.05;1.10;;;17.90;46.00;;;;;;5016804;28;20161;-81
2022/04/20 12:34:00;;;;;;;2.13;1.40;;;18.00;46.00;;;;;;5015943;28;20045;-80
2022/04/20 12:36:26;;;;;;;;;;;18.00;45.60;;;;;;5015972;28;20057;-80
2022/04/20 12:38:51;;;;;;;3.88;1.77;;;17.90;43.00;;;;;;5015818;28;20012;-80
2022/04/20 12:41:42;;;;;;;3.72;1.65;;;17.90;46.20;;;;;;5015367;28;20049;-80
2022/04/20 12:44:39;;;;;;;2.10;1.30;;;18.00;45.30;;;;;;5034000;28;20072;-80
2022/04/20 12:47:11;;;;;;;2.00;1.40;;;18.10;44.50;;;;;;5016703;28;20100;-80
2022/04/20 12:49:51;;;;;;;1.25;1.15;;;18.10;45.00;;;;;;5016813;28;20090;-80
2022/04/20 12:52:19;;;;;;;2.92;1.08;;;18.10;44.90;;;;;;5032348;28;20052;-80
2022/04/20 12:55:21;;;;;;;1.92;1.48;;;18.20;45.20;;;;;;4999528;28;20045;-81
2022/04/20 13:03:37;;;;;;;4.57;1.92;;;18.20;44.40;;;;;;5015881;28;20501;-81
2022/04/20 13:06:04;;;;;;;2.60;1.70;;;18.20;44.90;;;;;;5016072;28;20030;-81
2022/04/20 13:08:29;;;;;;;4.85;1.58;;;18.30;45.20;;;;;;5015570;28;20045;-80
2022/04/20 13:10:55;;;;;;;2.55;1.45;;;18.30;44.90;;;;;;4998829;28;20395;-81
2022/04/20 13:13:27;;;;;;;4.75;1.55;;;18.30;44.60;;;;;;5015640;28;20037;-82
2022/04/20 13:15:53;;;;;;;2.67;1.27;;;18.20;44.50;;;;;;4999264;28;20557;-80
2022/04/20 13:18:19;;;;;;;2.75;1.77;;;18.20;45.20;;;;;;5015898;28;20064;-81
2022/04/20 13:20:45;;;;;;;4.50;1.40;;;18.30;45.10;;;;;;5000356;28;20041;-81
2022/04/20 13:23:11;;;;;;;4.60;1.58;;;18.30;44.60;;;;;;5018835;28;20038;-79
2022/04/20 13:28:21;;;;;;;2.42;1.70;;;18.20;44.90;;;;;;5015696;28;20049;-80
2022/04/20 13:30:47;;;;;;;2.15;1.63;;;18.30;45.40;;;;;;5000437;28;20404;-81
2022/04/20 13:33:14;;;;;;;3.70;1.85;;;18.40;44.70;;;;;;5033932;28;20049;-80
2022/04/20 13:35:41;;;;;;;3.60;1.80;;;18.40;44.60;;;;;;5018276;28;20113;-81
2022/04/20 13:38:07;;;;;;;4.43;1.88;;;18.20;45.00;;;;;;5017625;28;20120;-80
2022/04/20 13:40:36;;;;;;;5.22;2.05;;;18.20;45.60;;;;;;5018621;28;20598;-81
2022/04/20 13:43:02;;;;;;;2.42;1.60;;;18.30;45.70;;;;;;5018064;28;20125;-81